This is the latest recevied weather packets stored in our database for station/object GW1468. If no packets are shown the sender has not sent any weather packets the latest 10 day(s).
| Time | Temp. | Humidity | Pressure | Rain* | Wind** | Luminosity | Snow |
|---|---|---|---|---|---|---|---|
| 1777643291 | 8.89° C | 83% | - | 0 mm | - | - | - |
| 1777639339 | 5.56° C | 93% | - | 0 mm | - | - | - |
| 1777638989 | 5.56° C | 94% | - | 0 mm | - | - | - |
| 1777638616 | 5° C | 94% | - | 0 mm | - | - | - |
| 1777630365 | 1.67° C | 99% | - | 0 mm | - | - | - |
| 1777629263 | 1.67° C | 99% | - | 0 mm | - | - | - |
| 1777628901 | 1.67° C | 99% | - | 0 mm | - | - | - |
| 1777626758 | 1.67° C | 99% | - | 0 mm | - | - | - |
| 1777625668 | 2.22° C | 99% | - | 0 mm | - | - | - |
| 1777624612 | 2.22° C | 99% | - | 0 mm | - | - | - |
| 1777624253 | 2.22° C | 99% | - | 0 mm | - | - | - |
| 1777623876 | 2.78° C | 99% | - | 0 mm | - | - | - |
| 1777623144 | 2.78° C | 99% | - | 0 mm | - | - | - |
| 1777621373 | 2.78° C | 99% | - | 0 mm | - | - | - |
| 1777620987 | 2.78° C | 99% | - | 0 mm | - | - | - |
| 1777618453 | 3.33° C | 99% | - | 0 mm | - | - | - |
| 1777615948 | 3.33° C | 99% | - | 0 mm | - | - | - |
| 1777613420 | 3.89° C | 99% | - | 0 mm | - | - | - |
| 1777605170 | 5.56° C | 95% | - | 0 mm | - | - | - |
| 1777604801 | 5.56° C | 95% | - | 0 mm | - | - | - |
| 1777602278 | 6.11° C | 94% | - | 0 mm | - | - | - |
| 1777600495 | 7.22° C | 90% | - | 0 mm | - | - | - |
| 1777598331 | 7.78° C | 86% | - | 0 mm | - | - | - |
| 1777595807 | 10° C | 76% | - | 0 mm | - | - | - |
| 1777592921 | 12.22° C | 64% | - | 0 mm | - | - | - |
* Rain since midnight (hover to see other rain measurements)
** Current wind speed in m/s (hover to see current wind gust speed)